This is the latest recevied weather packets stored in our database for station/object N7CW. If no packets are shown the sender has not sent any weather packets the latest 10 day(s).
| Time | Temp. | Humidity | Pressure | Rain* | Wind** | Luminosity | Snow |
|---|---|---|---|---|---|---|---|
| 1778012488 | 11.67° C | 49% | 1012.8 hPa | 0 mm | - | 810 W/m² | - |
| 1778012185 | 10.56° C | 53% | 1012.8 hPa | 0 mm | - | 754 W/m² | - |
| 1778011883 | 10° C | 56% | 1013.2 hPa | 0 mm | - | 640 W/m² | - |
| 1778011581 | 10.56° C | 51% | 1013.1 hPa | 0 mm | - | 241 W/m² | - |
| 1778011278 | 11.11° C | 55% | 1013.3 hPa | 0 mm | - | 1148 W/m² | - |
| 1778010974 | 10.56° C | 57% | 1013.2 hPa | 0 mm | - | 255 W/m² | - |
| 1778010671 | 11.11° C | 52% | 1013.1 hPa | 0 mm | - | 234 W/m² | - |
| 1778010368 | 11.11° C | 49% | 1012.9 hPa | 0 mm | - | 261 W/m² | - |
| 1778010064 | 11.67° C | 49% | 1012.8 hPa | 0 mm | - | 261 W/m² | - |
| 1778009761 | 11.67° C | 48% | 1013.2 hPa | 0 mm | - | 412 W/m² | - |
| 1778009458 | 11.67° C | 48% | 1013.2 hPa | 0 mm | - | 314 W/m² | - |
| 1778009157 | 11.11° C | 49% | 1013.3 hPa | 0 mm | - | 200 W/m² | - |
| 1778008854 | 11.67° C | 48% | 1013.3 hPa | 0 mm | - | 262 W/m² | - |
| 1778008552 | 11.11° C | 50% | 1013.2 hPa | 0 mm | - | 245 W/m² | - |
| 1778008249 | 11.11° C | 50% | 1013.3 hPa | 0 mm | - | 443 W/m² | - |
| 1778007944 | 11.11° C | 50% | 1013.3 hPa | 0 mm | - | 291 W/m² | - |
| 1778007640 | 10.56° C | 50% | 1013.3 hPa | 0 mm | - | 1105 W/m² | - |
| 1778007337 | 10.56° C | 54% | 1013.3 hPa | 0 mm | - | 258 W/m² | - |
| 1778007033 | 10.56° C | 55% | 1013.2 hPa | 0 mm | - | 250 W/m² | - |
| 1778006730 | 10.56° C | 56% | 1013.4 hPa | 0 mm | - | 266 W/m² | - |
| 1778006427 | 10° C | 56% | 1013.2 hPa | 0 mm | - | 180 W/m² | - |
| 1778006124 | 10.56° C | 55% | 1013.3 hPa | 0 mm | - | 197 W/m² | - |
| 1778005822 | 11.11° C | 52% | 1013.3 hPa | 0 mm | - | 244 W/m² | - |
| 1778005518 | 11.11° C | 50% | 1013.3 hPa | 0 mm | - | 241 W/m² | - |
| 1778005215 | 11.67° C | 48% | 1013.2 hPa | 0 mm | - | 212 W/m² | - |
* Rain latest hour (hover to see other rain measurements)
** Current wind speed in m/s (hover to see current wind gust speed)